createdAt,value
2023-02-16T00:02:37.321Z,96903.81
2023-02-16T00:05:31.908Z,96902.84
2023-02-16T00:08:17.863Z,96905.59
2023-02-16T00:11:22.330Z,96901.50
2023-02-16T00:14:10.529Z,96881.19
2023-02-16T00:16:58.549Z,96899.81
2023-02-16T00:19:44.524Z,96859.97
2023-02-16T00:22:30.499Z,96896.53
2023-02-16T00:25:16.489Z,96896.84
2023-02-16T00:28:12.824Z,96884.91
2023-02-16T00:30:58.975Z,96870.03
2023-02-16T00:33:45.727Z,96889.25
2023-02-16T00:36:31.496Z,96902.41
2023-02-16T00:39:17.289Z,96890.56
2023-02-16T00:42:06.018Z,96889.00
2023-02-16T00:44:54.579Z,96879.34
2023-02-16T00:47:43.053Z,96886.22
2023-02-16T00:50:31.674Z,96881.47
2023-02-16T00:53:17.576Z,96877.03
2023-02-16T00:56:03.687Z,96878.09
2023-02-16T00:58:51.125Z,96876.41
2023-02-16T01:01:37.125Z,96877.38
2023-02-16T01:04:23.770Z,96871.34
2023-02-16T01:07:31.709Z,96879.16
2023-02-16T01:10:39.647Z,96876.09
2023-02-16T01:13:28.749Z,96858.88
2023-02-16T01:16:26.305Z,96865.13
2023-02-16T01:19:13.102Z,96865.84
2023-02-16T01:21:58.890Z,96863.41
2023-02-16T01:24:47.193Z,96857.28
2023-02-16T01:27:33.213Z,96853.91
2023-02-16T01:30:21.370Z,96848.75
2023-02-16T01:33:07.007Z,96838.38
2023-02-16T01:35:57.038Z,96836.59
2023-02-16T01:38:43.236Z,96821.50
2023-02-16T01:41:45.916Z,96838.59
2023-02-16T01:44:58.833Z,96842.38
2023-02-16T01:47:48.260Z,96805.31
2023-02-16T01:50:53.097Z,96846.84
2023-02-16T01:53:46.668Z,96832.06
2023-02-16T01:56:40.634Z,96837.22
2023-02-16T02:00:04.694Z,96830.91
2023-02-16T02:03:20.375Z,96832.25
2023-02-16T02:06:10.528Z,96828.13
2023-02-16T02:09:04.071Z,96840.50
2023-02-16T02:11:57.716Z,96822.97
2023-02-16T02:14:43.723Z,96830.69
2023-02-16T02:17:29.926Z,96813.78
2023-02-16T02:21:11.644Z,96835.53
2023-02-16T02:24:03.710Z,96842.50
2023-02-16T02:27:07.914Z,96841.78
2023-02-16T02:30:16.772Z,96841.91
2023-02-16T02:33:27.652Z,96846.53
2023-02-16T02:36:26.992Z,96835.34
2023-02-16T02:39:20.313Z,96835.13
2023-02-16T02:42:17.369Z,96828.38
2023-02-16T02:45:27.442Z,96832.69
2023-02-16T02:48:13.313Z,96811.34
2023-02-16T02:51:27.426Z,96830.06
2023-02-16T02:54:35.700Z,96829.31
2023-02-16T02:57:51.080Z,96833.00
2023-02-16T03:00:44.207Z,96831.22
2023-02-16T03:03:36.706Z,96825.41
2023-02-16T03:06:35.121Z,96824.75
2023-02-16T03:09:21.207Z,96827.84
2023-02-16T03:12:27.372Z,96827.31
2023-02-16T03:15:13.740Z,96838.72
2023-02-16T03:18:18.913Z,96842.41
2023-02-16T03:21:23.535Z,96832.06
2023-02-16T03:24:32.172Z,96836.81
2023-02-16T03:27:41.788Z,96833.53
2023-02-16T03:30:28.429Z,96847.38
2023-02-16T03:33:14.458Z,96845.91
2023-02-16T03:36:01.260Z,96836.38
2023-02-16T03:38:47.608Z,96835.53
2023-02-16T03:41:46.858Z,96838.50
2023-02-16T03:44:34.842Z,96831.09
2023-02-16T03:47:20.651Z,96839.63
2023-02-16T03:50:07.351Z,96826.03
2023-02-16T03:53:06.824Z,96828.53
2023-02-16T03:55:52.784Z,96809.97
2023-02-16T03:58:38.674Z,96822.00
2023-02-16T04:01:24.640Z,96830.66
2023-02-16T04:04:10.664Z,96825.50
2023-02-16T04:06:56.560Z,96824.72
2023-02-16T04:09:42.332Z,96818.84
2023-02-16T04:12:37.329Z,96820.63
2023-02-16T04:15:26.333Z,96817.53
2023-02-16T04:18:12.257Z,96812.25
2023-02-16T04:20:58.103Z,96812.50
2023-02-16T04:23:43.782Z,96817.84
2023-02-16T04:26:29.468Z,96820.06
2023-02-16T04:29:15.992Z,96826.81
2023-02-16T04:32:01.837Z,96823.53
2023-02-16T04:34:48.125Z,96817.50
2023-02-16T04:37:34.460Z,96823.84
2023-02-16T04:40:20.341Z,96820.56
2023-02-16T04:43:06.455Z,96806.81
2023-02-16T04:45:52.536Z,96810.31
2023-02-16T04:48:38.713Z,96814.94
2023-02-16T04:51:24.828Z,96818.53
2023-02-16T04:54:10.785Z,96814.50
2023-02-16T04:56:56.623Z,96804.38
2023-02-16T04:59:42.732Z,96811.63
2023-02-16T05:02:28.916Z,96802.03
2023-02-16T05:05:14.791Z,96817.34
2023-02-16T05:08:01.283Z,96799.81
2023-02-16T05:11:07.311Z,96815.28
2023-02-16T05:14:12.124Z,96798.38
2023-02-16T05:16:58.435Z,96828.47
2023-02-16T05:20:03.740Z,96826.59
2023-02-16T05:22:49.625Z,96829.34
2023-02-16T05:25:35.353Z,96825.28
2023-02-16T05:28:21.308Z,96821.75
2023-02-16T05:31:07.257Z,96827.50
2023-02-16T05:33:53.433Z,96826.34
2023-02-16T05:36:39.526Z,96841.22
2023-02-16T05:39:25.330Z,96826.47
2023-02-16T05:42:11.242Z,96826.53
2023-02-16T05:44:57.252Z,96831.81
2023-02-16T05:47:44.123Z,96840.56
2023-02-16T05:50:31.645Z,96835.28
2023-02-16T05:53:18.343Z,96837.84
2023-02-16T05:56:07.047Z,96817.53
2023-02-16T05:58:53.853Z,96831.81
2023-02-16T06:01:41.124Z,96838.69
2023-02-16T06:04:26.875Z,96839.53
2023-02-16T06:07:14.846Z,96848.41
2023-02-16T06:10:01.222Z,96840.38
2023-02-16T06:12:47.269Z,96835.09
2023-02-16T06:15:33.067Z,96838.59
2023-02-16T06:18:18.826Z,96841.78
2023-02-16T06:21:05.270Z,96838.47
2023-02-16T06:23:52.198Z,96842.41
2023-02-16T06:26:38.457Z,96849.38
2023-02-16T06:29:24.521Z,96819.84
2023-02-16T06:32:10.770Z,96839.94
2023-02-16T06:34:56.598Z,96843.41
2023-02-16T06:37:42.510Z,96836.16
2023-02-16T06:40:28.289Z,96837.53
2023-02-16T06:43:14.045Z,96853.91
2023-02-16T06:46:00.130Z,96854.56
2023-02-16T06:48:45.886Z,96848.44
2023-02-16T06:51:31.909Z,96850.03
2023-02-16T06:54:18.903Z,96854.06
2023-02-16T06:57:04.742Z,96837.75
2023-02-16T06:59:50.603Z,96858.50
2023-02-16T07:02:37.580Z,96854.06
2023-02-16T07:05:23.659Z,96872.34
2023-02-16T07:08:09.563Z,96856.41
2023-02-16T07:10:55.533Z,96866.75
2023-02-16T07:13:41.549Z,96860.44
2023-02-16T07:16:27.382Z,96862.97
2023-02-16T07:19:13.172Z,96855.59
2023-02-16T07:22:00.110Z,96855.28
2023-02-16T07:24:46.024Z,96861.75
2023-02-16T07:27:31.798Z,96861.94
2023-02-16T07:30:17.976Z,96850.13
2023-02-16T07:33:03.875Z,96859.31
2023-02-16T07:35:50.327Z,96838.50
2023-02-16T07:38:37.034Z,96841.47
2023-02-16T07:41:23.036Z,96842.22
2023-02-16T07:44:09.123Z,96839.03
2023-02-16T07:46:55.374Z,96845.16
2023-02-16T07:49:41.344Z,96831.22
2023-02-16T07:52:31.198Z,96836.59
2023-02-16T07:55:17.140Z,96831.69
2023-02-16T07:58:04.744Z,96840.97
2023-02-16T08:00:50.861Z,96846.34
2023-02-16T08:03:36.931Z,96843.09
2023-02-16T08:06:23.661Z,96832.53
2023-02-16T08:09:09.518Z,96830.28
2023-02-16T08:11:55.389Z,96833.66
2023-02-16T08:14:41.448Z,96828.13
2023-02-16T08:17:27.526Z,96831.28
2023-02-16T08:20:14.071Z,96834.22
2023-02-16T08:22:59.992Z,96826.78
2023-02-16T08:25:45.957Z,96825.03
2023-02-16T08:28:31.909Z,96820.88
2023-02-16T08:31:23.652Z,96825.69
2023-02-16T08:34:09.907Z,96827.75
2023-02-16T08:36:57.127Z,96826.22
2023-02-16T08:39:42.854Z,96817.56
2023-02-16T08:42:28.837Z,96822.91
2023-02-16T08:45:15.233Z,96819.78
2023-02-16T08:48:02.281Z,96818.13
2023-02-16T08:50:54.019Z,96824.38
2023-02-16T08:53:40.779Z,96821.03
2023-02-16T08:56:27.492Z,96823.19
2023-02-16T08:59:18.326Z,96818.25
2023-02-16T09:02:05.076Z,96814.28
2023-02-16T09:04:50.950Z,96810.28
2023-02-16T09:07:36.774Z,96799.81
2023-02-16T09:10:25.439Z,96807.59
2023-02-16T09:13:14.964Z,96812.41
2023-02-16T09:16:18.855Z,96816.50
2023-02-16T09:19:06.081Z,96806.31
2023-02-16T09:21:52.119Z,96809.88
2023-02-16T09:24:37.900Z,96807.94
2023-02-16T09:27:24.743Z,96803.16
2023-02-16T09:30:11.152Z,96797.06
2023-02-16T09:32:59.359Z,96798.44
2023-02-16T09:35:45.763Z,96795.59
2023-02-16T09:38:31.394Z,96799.72
2023-02-16T09:41:32.641Z,96790.97
2023-02-16T09:44:23.836Z,96770.13
2023-02-16T09:47:26.415Z,96789.25
2023-02-16T09:50:50.767Z,96781.91
2023-02-16T09:53:39.990Z,96775.22
2023-02-16T09:56:36.748Z,96772.56
2023-02-16T09:59:36.350Z,96773.56
2023-02-16T10:02:39.059Z,96769.94
2023-02-16T10:05:45.487Z,96764.09
2023-02-16T10:08:42.381Z,96763.78
2023-02-16T10:11:41.756Z,96755.25
2023-02-16T10:14:32.191Z,96761.41
2023-02-16T10:17:31.497Z,96751.75
2023-02-16T10:20:26.016Z,96753.84
2023-02-16T10:23:23.930Z,96744.13
2023-02-16T10:26:18.037Z,96747.91
2023-02-16T10:29:08.131Z,96739.84
2023-02-16T10:32:35.457Z,96725.25
2023-02-16T10:35:32.340Z,96719.75
2023-02-16T10:38:38.900Z,96727.63
2023-02-16T10:41:32.906Z,96703.16
2023-02-16T10:44:23.221Z,96726.06
2023-02-16T10:47:28.042Z,96714.25
2023-02-16T10:50:17.636Z,96696.56
2023-02-16T10:53:14.887Z,96685.13
2023-02-16T10:56:00.919Z,96695.88
2023-02-16T10:58:47.682Z,96687.59
2023-02-16T11:01:39.646Z,96689.88
2023-02-16T11:04:33.190Z,96676.34
2023-02-16T11:07:22.200Z,96685.28
2023-02-16T11:10:22.524Z,96679.75
2023-02-16T11:13:37.976Z,96664.25
2023-02-16T11:16:24.579Z,96670.06
2023-02-16T11:19:21.962Z,96665.94
2023-02-16T11:22:26.876Z,96652.03
2023-02-16T11:25:20.181Z,96662.88
2023-02-16T11:28:06.431Z,96654.88
2023-02-16T11:31:00.455Z,96657.91
2023-02-16T11:33:59.600Z,96652.91
2023-02-16T11:36:47.108Z,96631.81
2023-02-16T11:39:41.164Z,96626.31
2023-02-16T11:42:35.062Z,96637.06
2023-02-16T11:45:32.882Z,96635.91
2023-02-16T11:48:27.096Z,96626.34
2023-02-16T11:51:15.686Z,96638.25
2023-02-16T11:54:04.984Z,96610.72
2023-02-16T11:57:15.883Z,96623.63
2023-02-16T12:00:07.494Z,96619.75
2023-02-16T12:03:10.337Z,96617.06
2023-02-16T12:06:08.031Z,96604.59
2023-02-16T12:09:08.679Z,96607.38
2023-02-16T12:12:10.012Z,96575.03
2023-02-16T12:15:14.585Z,96595.72
2023-02-16T12:18:12.853Z,96589.50
2023-02-16T12:21:03.609Z,96571.53
2023-02-16T12:24:21.084Z,96573.69
2023-02-16T12:27:19.076Z,96572.09
2023-02-16T12:30:11.550Z,96552.56
2023-02-16T12:33:08.144Z,96563.25
2023-02-16T12:36:03.634Z,96560.91
2023-02-16T12:39:12.789Z,96543.38
2023-02-16T12:42:22.960Z,96534.72
2023-02-16T12:45:14.144Z,96551.97
2023-02-16T12:48:08.918Z,96544.34
2023-02-16T12:50:55.940Z,96540.84
2023-02-16T12:53:47.049Z,96534.22
2023-02-16T12:56:48.142Z,96530.22
2023-02-16T13:00:04.869Z,96529.78
2023-02-16T13:02:57.061Z,96522.66
2023-02-16T13:05:43.709Z,96513.00
2023-02-16T13:08:39.312Z,96511.06
2023-02-16T13:12:19.500Z,96511.22
2023-02-16T13:15:12.460Z,96512.63
2023-02-16T13:18:03.348Z,96508.53
2023-02-16T13:20:53.986Z,96483.91
2023-02-16T13:24:08.709Z,96494.31
2023-02-16T13:27:42.743Z,96496.69
2023-02-16T13:31:05.856Z,96498.56
2023-02-16T13:34:01.019Z,96502.00
2023-02-16T13:36:59.137Z,96495.53
2023-02-16T13:40:01.195Z,96494.72
2023-02-16T13:42:57.971Z,96486.41
2023-02-16T13:45:46.926Z,96496.38
2023-02-16T13:48:37.692Z,96493.13
2023-02-16T13:51:26.410Z,96488.78
2023-02-16T13:54:26.921Z,96477.63
2023-02-16T13:57:15.161Z,96484.78
2023-02-16T14:00:05.522Z,96483.88
2023-02-16T14:03:00.970Z,96481.84
2023-02-16T14:05:54.552Z,96478.25
2023-02-16T14:08:42.400Z,96468.41
2023-02-16T14:11:28.994Z,96482.72
2023-02-16T14:14:32.988Z,96487.53
2023-02-16T14:17:21.948Z,96488.84
2023-02-16T14:20:28.012Z,96500.78
2023-02-16T14:23:27.778Z,96487.47
2023-02-16T14:26:14.956Z,96487.22
2023-02-16T14:29:02.890Z,96491.78
2023-02-16T14:32:33.932Z,96484.63
2023-02-16T14:35:23.186Z,96493.88
2023-02-16T14:38:29.665Z,96494.16
2023-02-16T14:41:34.751Z,96502.41
2023-02-16T14:44:29.993Z,96501.09
2023-02-16T14:47:31.037Z,96488.69
2023-02-16T14:50:48.900Z,96489.88
2023-02-16T14:53:40.901Z,96497.69
2023-02-16T14:56:40.495Z,96493.44
2023-02-16T14:59:38.745Z,96497.06
2023-02-16T15:02:37.987Z,96480.25
2023-02-16T15:05:33.448Z,96484.47
2023-02-16T15:08:22.680Z,96500.28
2023-02-16T15:11:19.497Z,96476.41
2023-02-16T15:14:09.285Z,96499.44
2023-02-16T15:16:57.723Z,96503.28
2023-02-16T15:19:43.999Z,96487.91
2023-02-16T15:22:30.553Z,96494.41
2023-02-16T15:25:24.075Z,96498.44
2023-02-16T15:28:10.280Z,96499.06
2023-02-16T15:30:58.925Z,96492.28
2023-02-16T15:34:05.601Z,96488.97
2023-02-16T15:36:51.257Z,96491.09
2023-02-16T15:39:49.931Z,96492.28
2023-02-16T15:42:45.299Z,96495.75
2023-02-16T15:45:38.099Z,96487.47
2023-02-16T15:48:26.313Z,96493.41
2023-02-16T15:51:25.294Z,96483.25
2023-02-16T15:54:24.612Z,96478.22
2023-02-16T15:57:16.413Z,96495.78
2023-02-16T16:00:14.340Z,96489.78
2023-02-16T16:03:01.130Z,96495.28
2023-02-16T16:05:58.776Z,96501.44
2023-02-16T16:08:45.349Z,96497.09
2023-02-16T16:11:31.267Z,96511.53
2023-02-16T16:14:17.115Z,96517.63
2023-02-16T16:17:04.039Z,96510.28
2023-02-16T16:19:51.364Z,96516.16
2023-02-16T16:22:39.964Z,96515.56
2023-02-16T16:25:34.271Z,96522.84
2023-02-16T16:28:27.617Z,96529.75
2023-02-16T16:31:21.262Z,96525.25
2023-02-16T16:34:10.131Z,96517.94
2023-02-16T16:36:57.876Z,96524.69
2023-02-16T16:39:44.318Z,96521.72
2023-02-16T16:42:31.336Z,96530.78
2023-02-16T16:45:20.476Z,96538.34
2023-02-16T16:48:17.599Z,96531.41
2023-02-16T16:51:21.114Z,96526.91
2023-02-16T16:54:31.445Z,96527.97
2023-02-16T16:57:18.791Z,96539.00
2023-02-16T17:00:05.778Z,96544.19
2023-02-16T17:02:52.424Z,96551.75
2023-02-16T17:05:40.035Z,96544.56
2023-02-16T17:08:26.080Z,96536.88
2023-02-16T17:11:33.288Z,96545.91
2023-02-16T17:14:20.242Z,96554.09
2023-02-16T17:17:08.945Z,96555.28
2023-02-16T17:19:56.242Z,96554.47
2023-02-16T17:22:42.374Z,96547.41
2023-02-16T17:25:28.188Z,96539.41
2023-02-16T17:28:15.941Z,96566.50
2023-02-16T17:31:05.702Z,96561.47
2023-02-16T17:33:51.764Z,96561.47
2023-02-16T17:36:38.676Z,96562.47
2023-02-16T17:39:24.740Z,96572.97
2023-02-16T17:42:11.925Z,96576.31
2023-02-16T17:44:58.048Z,96567.75
2023-02-16T17:47:47.900Z,96548.97
2023-02-16T17:50:34.263Z,96569.69
2023-02-16T17:53:24.032Z,96571.31
2023-02-16T17:56:14.849Z,96572.28
2023-02-16T17:59:01.435Z,96565.88
2023-02-16T18:01:47.245Z,96569.38
2023-02-16T18:04:33.214Z,96575.16
2023-02-16T18:07:19.782Z,96564.34
2023-02-16T18:10:06.484Z,96570.00
2023-02-16T18:12:52.493Z,96580.31
2023-02-16T18:15:40.066Z,96563.91
2023-02-16T18:18:25.973Z,96580.91
2023-02-16T18:21:17.739Z,96574.00
2023-02-16T18:24:07.913Z,96572.13
2023-02-16T18:26:55.504Z,96576.75
2023-02-16T18:29:41.542Z,96574.34
2023-02-16T18:32:27.452Z,96581.81
2023-02-16T18:35:14.245Z,96583.56
2023-02-16T18:38:00.170Z,96582.19
2023-02-16T18:40:46.337Z,96575.81
2023-02-16T18:43:32.395Z,96587.78
2023-02-16T18:46:18.757Z,96580.69
2023-02-16T18:49:06.411Z,96575.94
2023-02-16T18:51:52.520Z,96591.41
2023-02-16T18:54:38.742Z,96587.53
2023-02-16T18:57:24.657Z,96591.50
2023-02-16T19:00:12.136Z,96577.22
2023-02-16T19:02:57.925Z,96594.38
2023-02-16T19:05:43.786Z,96597.34
2023-02-16T19:08:29.668Z,96598.63
2023-02-16T19:11:15.765Z,96600.22
2023-02-16T19:14:01.610Z,96594.34
2023-02-16T19:16:47.539Z,96593.56
2023-02-16T19:19:34.369Z,96594.81
2023-02-16T19:22:20.292Z,96593.88
2023-02-16T19:25:07.046Z,96594.16
2023-02-16T19:27:52.970Z,96601.59
2023-02-16T19:30:38.819Z,96602.31
2023-02-16T19:33:24.876Z,96610.75
2023-02-16T19:36:11.568Z,96609.53
2023-02-16T19:38:57.652Z,96608.13
2023-02-16T19:41:44.061Z,96607.88
2023-02-16T19:44:30.202Z,96604.78
2023-02-16T19:47:16.144Z,96604.38
2023-02-16T19:50:02.239Z,96602.72
2023-02-16T19:52:48.091Z,96610.56
2023-02-16T19:55:34.096Z,96617.03
2023-02-16T19:58:19.893Z,96607.38
2023-02-16T20:01:11.254Z,96609.50
2023-02-16T20:03:57.961Z,96616.66
2023-02-16T20:06:44.592Z,96617.63
2023-02-16T20:09:30.772Z,96615.25
2023-02-16T20:12:17.099Z,96616.50
2023-02-16T20:15:03.068Z,96613.44
2023-02-16T20:17:48.772Z,96626.75
2023-02-16T20:20:35.981Z,96620.00
2023-02-16T20:23:21.930Z,96619.44
2023-02-16T20:26:10.707Z,96626.31
2023-02-16T20:28:56.791Z,96614.53
2023-02-16T20:31:48.552Z,96618.63
2023-02-16T20:34:34.783Z,96623.81
2023-02-16T20:37:21.778Z,96614.53
2023-02-16T20:40:08.984Z,96577.16
2023-02-16T20:42:54.960Z,96624.75
2023-02-16T20:45:42.925Z,96619.59
2023-02-16T20:48:29.328Z,96631.22
2023-02-16T20:51:15.525Z,96624.66
2023-02-16T20:54:02.354Z,96621.69
2023-02-16T20:56:48.492Z,96614.28
2023-02-16T20:59:34.603Z,96596.19
2023-02-16T21:02:20.720Z,96622.25
2023-02-16T21:05:08.615Z,96616.34
2023-02-16T21:07:54.497Z,96623.75
2023-02-16T21:10:40.381Z,96627.25
2023-02-16T21:13:26.278Z,96631.03
2023-02-16T21:16:14.066Z,96629.47
2023-02-16T21:19:00.073Z,96625.56
2023-02-16T21:21:46.041Z,96622.06
2023-02-16T21:24:31.898Z,96613.81
2023-02-16T21:27:18.173Z,96624.44
2023-02-16T21:30:05.540Z,96632.53
2023-02-16T21:32:51.627Z,96622.44
2023-02-16T21:35:37.897Z,96626.22
2023-02-16T21:38:23.948Z,96633.63
2023-02-16T21:41:24.905Z,96644.41
2023-02-16T21:44:14.917Z,96641.28
2023-02-16T21:47:19.833Z,96645.31
2023-02-16T21:50:06.319Z,96643.06
2023-02-16T21:52:52.450Z,96651.03
2023-02-16T21:55:57.510Z,96645.44
2023-02-16T21:58:44.235Z,96629.00
2023-02-16T22:01:32.572Z,96654.00
2023-02-16T22:04:21.878Z,96660.31
2023-02-16T22:07:08.045Z,96654.41
2023-02-16T22:09:54.339Z,96664.47
2023-02-16T22:12:40.184Z,96650.84
2023-02-16T22:15:26.320Z,96660.50
2023-02-16T22:18:12.315Z,96629.47
2023-02-16T22:21:02.581Z,96655.13
2023-02-16T22:23:48.369Z,96664.91
2023-02-16T22:26:35.557Z,96670.22
2023-02-16T22:29:21.640Z,96672.78
2023-02-16T22:32:07.527Z,96666.25
2023-02-16T22:34:54.385Z,96672.28
2023-02-16T22:37:40.340Z,96666.41
2023-02-16T22:40:26.207Z,96679.66
2023-02-16T22:43:12.378Z,96685.94
2023-02-16T22:45:58.526Z,96677.50
2023-02-16T22:48:45.046Z,96683.78
2023-02-16T22:51:31.581Z,96683.09
2023-02-16T22:54:17.673Z,96667.81
2023-02-16T22:57:04.341Z,96667.81
2023-02-16T22:59:50.340Z,96683.88
2023-02-16T23:02:37.689Z,96668.31
2023-02-16T23:05:23.564Z,96677.25
2023-02-16T23:08:10.451Z,96670.25
2023-02-16T23:11:02.528Z,96671.38
2023-02-16T23:13:48.568Z,96664.63
2023-02-16T23:16:34.377Z,96668.84
2023-02-16T23:19:25.779Z,96666.69
2023-02-16T23:22:11.743Z,96664.56
2023-02-16T23:25:16.117Z,96669.47
2023-02-16T23:28:03.336Z,96668.88
2023-02-16T23:30:49.002Z,96670.94
2023-02-16T23:33:34.835Z,96671.22
2023-02-16T23:36:20.922Z,96685.44
2023-02-16T23:39:12.902Z,96683.88
2023-02-16T23:41:58.859Z,96682.59
2023-02-16T23:44:44.885Z,96663.47
2023-02-16T23:47:30.772Z,96684.50
2023-02-16T23:50:16.808Z,96682.50
2023-02-16T23:53:02.862Z,96681.91
2023-02-16T23:56:03.804Z,96684.09
2023-02-16T23:58:50.451Z,96682.41
